sensor_id;sensor_type;location;lat;lon;timestamp;temperature;humidity
19330;DHT22;9799;48.214;16.388;2022-09-03T00:00:01;17.70;99.90
19330;DHT22;9799;48.214;16.388;2022-09-03T00:03:28;17.70;99.90
19330;DHT22;9799;48.214;16.388;2022-09-03T00:06:59;17.60;99.90
19330;DHT22;9799;48.214;16.388;2022-09-03T00:10:25;17.60;99.90
19330;DHT22;9799;48.214;16.388;2022-09-03T00:13:53;17.60;99.90
19330;DHT22;9799;48.214;16.388;2022-09-03T00:17:20;17.50;99.90
19330;DHT22;9799;48.214;16.388;2022-09-03T00:20:45;17.50;99.90
19330;DHT22;9799;48.214;16.388;2022-09-03T00:24:13;17.40;99.90
19330;DHT22;9799;48.214;16.388;2022-09-03T00:27:39;17.40;99.90
19330;DHT22;9799;48.214;16.388;2022-09-03T00:31:10;17.40;99.90
19330;DHT22;9799;48.214;16.388;2022-09-03T00:34:39;17.40;99.90
19330;DHT22;9799;48.214;16.388;2022-09-03T00:38:01;17.20;99.90
19330;DHT22;9799;48.214;16.388;2022-09-03T00:41:30;17.00;99.90
19330;DHT22;9799;48.214;16.388;2022-09-03T00:45:02;17.00;99.90
19330;DHT22;9799;48.214;16.388;2022-09-03T00:48:29;17.00;99.90
19330;DHT22;9799;48.214;16.388;2022-09-03T00:51:58;17.20;99.90
19330;DHT22;9799;48.214;16.388;2022-09-03T00:55:29;17.00;99.90
19330;DHT22;9799;48.214;16.388;2022-09-03T00:59:03;16.90;99.90
19330;DHT22;9799;48.214;16.388;2022-09-03T01:02:36;16.80;99.90
19330;DHT22;9799;48.214;16.388;2022-09-03T01:06:09;16.80;99.90
19330;DHT22;9799;48.214;16.388;2022-09-03T01:09:45;16.80;99.90
19330;DHT22;9799;48.214;16.388;2022-09-03T01:13:12;16.90;99.90
19330;DHT22;9799;48.214;16.388;2022-09-03T01:16:41;16.90;99.90
19330;DHT22;9799;48.214;16.388;2022-09-03T01:20:15;16.60;99.90
19330;DHT22;9799;48.214;16.388;2022-09-03T01:24:02;16.50;99.90
19330;DHT22;9799;48.214;16.388;2022-09-03T01:27:38;16.40;99.90
19330;DHT22;9799;48.214;16.388;2022-09-03T01:31:14;16.30;99.90
19330;DHT22;9799;48.214;16.388;2022-09-03T01:34:48;16.30;99.90
19330;DHT22;9799;48.214;16.388;2022-09-03T01:38:22;16.30;99.90
19330;DHT22;9799;48.214;16.388;2022-09-03T01:41:53;16.50;99.90
19330;DHT22;9799;48.214;16.388;2022-09-03T01:45:45;16.40;99.90
19330;DHT22;9799;48.214;16.388;2022-09-03T01:49:16;16.20;99.90
19330;DHT22;9799;48.214;16.388;2022-09-03T01:52:45;16.40;99.90
19330;DHT22;9799;48.214;16.388;2022-09-03T01:56:24;16.60;99.90
19330;DHT22;9799;48.214;16.388;2022-09-03T01:59:52;16.60;99.90
19330;DHT22;9799;48.214;16.388;2022-09-03T02:03:18;16.60;99.90
19330;DHT22;9799;48.214;16.388;2022-09-03T02:06:41;16.30;99.90
19330;DHT22;9799;48.214;16.388;2022-09-03T02:10:06;16.10;99.90
19330;DHT22;9799;48.214;16.388;2022-09-03T02:13:29;16.10;99.90
19330;DHT22;9799;48.214;16.388;2022-09-03T02:16:52;16.30;99.90
19330;DHT22;9799;48.214;16.388;2022-09-03T02:20:18;16.40;99.90
19330;DHT22;9799;48.214;16.388;2022-09-03T02:23:41;16.40;99.90
19330;DHT22;9799;48.214;16.388;2022-09-03T02:27:02;16.40;99.90
19330;DHT22;9799;48.214;16.388;2022-09-03T02:30:23;16.30;99.90
19330;DHT22;9799;48.214;16.388;2022-09-03T02:33:46;16.30;99.90
19330;DHT22;9799;48.214;16.388;2022-09-03T02:37:12;16.30;99.90
19330;DHT22;9799;48.214;16.388;2022-09-03T02:40:35;16.30;99.90
19330;DHT22;9799;48.214;16.388;2022-09-03T02:44:00;16.20;99.90
19330;DHT22;9799;48.214;16.388;2022-09-03T02:47:22;16.20;99.90
19330;DHT22;9799;48.214;16.388;2022-09-03T02:50:49;16.00;99.90
19330;DHT22;9799;48.214;16.388;2022-09-03T02:54:11;16.00;99.90
19330;DHT22;9799;48.214;16.388;2022-09-03T02:57:35;16.00;99.90
19330;DHT22;9799;48.214;16.388;2022-09-03T03:00:56;16.00;99.90
19330;DHT22;9799;48.214;16.388;2022-09-03T03:04:18;15.90;99.90
19330;DHT22;9799;48.214;16.388;2022-09-03T03:07:40;15.90;99.90
19330;DHT22;9799;48.214;16.388;2022-09-03T03:11:01;15.90;99.90
19330;DHT22;9799;48.214;16.388;2022-09-03T03:14:23;15.90;99.90
19330;DHT22;9799;48.214;16.388;2022-09-03T03:17:45;15.90;99.90
19330;DHT22;9799;48.214;16.388;2022-09-03T03:21:07;15.80;99.90
19330;DHT22;9799;48.214;16.388;2022-09-03T03:24:29;15.80;99.90
19330;DHT22;9799;48.214;16.388;2022-09-03T03:27:50;15.70;99.90
19330;DHT22;9799;48.214;16.388;2022-09-03T03:31:16;15.80;99.90
19330;DHT22;9799;48.214;16.388;2022-09-03T03:34:37;15.70;99.90
19330;DHT22;9799;48.214;16.388;2022-09-03T03:37:59;15.70;99.90
19330;DHT22;9799;48.214;16.388;2022-09-03T03:41:21;15.70;99.90
19330;DHT22;9799;48.214;16.388;2022-09-03T03:44:43;15.70;99.90
19330;DHT22;9799;48.214;16.388;2022-09-03T03:48:06;15.60;99.90
19330;DHT22;9799;48.214;16.388;2022-09-03T03:51:27;15.60;99.90
19330;DHT22;9799;48.214;16.388;2022-09-03T03:54:49;15.50;99.90
19330;DHT22;9799;48.214;16.388;2022-09-03T03:58:10;15.40;99.90
19330;DHT22;9799;48.214;16.388;2022-09-03T04:01:31;15.30;99.90
19330;DHT22;9799;48.214;16.388;2022-09-03T04:04:54;15.30;99.90
19330;DHT22;9799;48.214;16.388;2022-09-03T04:08:15;15.30;99.90
19330;DHT22;9799;48.214;16.388;2022-09-03T04:11:36;15.50;99.90
19330;DHT22;9799;48.214;16.388;2022-09-03T04:14:57;15.50;99.90
19330;DHT22;9799;48.214;16.388;2022-09-03T04:18:18;15.40;99.90
19330;DHT22;9799;48.214;16.388;2022-09-03T04:21:41;15.40;99.90
19330;DHT22;9799;48.214;16.388;2022-09-03T04:25:03;15.30;99.90
19330;DHT22;9799;48.214;16.388;2022-09-03T04:28:25;15.10;99.90
19330;DHT22;9799;48.214;16.388;2022-09-03T04:31:46;15.10;99.90
19330;DHT22;9799;48.214;16.388;2022-09-03T04:35:22;15.20;99.90
19330;DHT22;9799;48.214;16.388;2022-09-03T04:38:47;15.20;99.90
19330;DHT22;9799;48.214;16.388;2022-09-03T04:42:08;15.20;99.90
19330;DHT22;9799;48.214;16.388;2022-09-03T04:45:29;15.10;99.90
19330;DHT22;9799;48.214;16.388;2022-09-03T04:48:52;15.10;99.90
19330;DHT22;9799;48.214;16.388;2022-09-03T04:52:13;15.00;99.90
19330;DHT22;9799;48.214;16.388;2022-09-03T04:55:36;15.10;99.90
19330;DHT22;9799;48.214;16.388;2022-09-03T04:58:59;15.00;99.90
19330;DHT22;9799;48.214;16.388;2022-09-03T05:02:20;15.00;99.90
19330;DHT22;9799;48.214;16.388;2022-09-03T05:05:42;14.90;99.90
19330;DHT22;9799;48.214;16.388;2022-09-03T05:09:03;14.80;99.90
19330;DHT22;9799;48.214;16.388;2022-09-03T05:12:26;14.80;99.90
19330;DHT22;9799;48.214;16.388;2022-09-03T05:15:47;15.00;99.90
19330;DHT22;9799;48.214;16.388;2022-09-03T05:19:09;15.00;99.90
19330;DHT22;9799;48.214;16.388;2022-09-03T05:22:31;14.90;99.90
19330;DHT22;9799;48.214;16.388;2022-09-03T05:25:55;14.90;99.90
19330;DHT22;9799;48.214;16.388;2022-09-03T05:29:18;15.00;99.90
19330;DHT22;9799;48.214;16.388;2022-09-03T05:32:40;15.30;99.90
19330;DHT22;9799;48.214;16.388;2022-09-03T05:36:02;15.50;99.90
19330;DHT22;9799;48.214;16.388;2022-09-03T05:39:24;15.80;99.90
19330;DHT22;9799;48.214;16.388;2022-09-03T05:42:45;16.00;99.90
19330;DHT22;9799;48.214;16.388;2022-09-03T05:46:09;16.20;99.90
19330;DHT22;9799;48.214;16.388;2022-09-03T05:49:31;16.00;99.90
19330;DHT22;9799;48.214;16.388;2022-09-03T05:52:52;16.00;99.90
19330;DHT22;9799;48.214;16.388;2022-09-03T05:56:16;16.00;99.90
19330;DHT22;9799;48.214;16.388;2022-09-03T05:59:37;15.80;99.90
19330;DHT22;9799;48.214;16.388;2022-09-03T06:03:00;15.80;99.90
19330;DHT22;9799;48.214;16.388;2022-09-03T06:06:22;15.90;99.90
19330;DHT22;9799;48.214;16.388;2022-09-03T06:09:44;16.20;99.90
19330;DHT22;9799;48.214;16.388;2022-09-03T06:13:05;16.30;99.90
19330;DHT22;9799;48.214;16.388;2022-09-03T06:16:27;16.40;99.90
19330;DHT22;9799;48.214;16.388;2022-09-03T06:19:49;16.50;99.90
19330;DHT22;9799;48.214;16.388;2022-09-03T06:23:11;16.60;99.90
19330;DHT22;9799;48.214;16.388;2022-09-03T06:26:32;16.70;99.90
19330;DHT22;9799;48.214;16.388;2022-09-03T06:29:53;16.70;99.90
19330;DHT22;9799;48.214;16.388;2022-09-03T06:33:18;16.50;99.90
19330;DHT22;9799;48.214;16.388;2022-09-03T06:36:40;16.50;99.90
19330;DHT22;9799;48.214;16.388;2022-09-03T06:40:02;16.70;99.90
19330;DHT22;9799;48.214;16.388;2022-09-03T06:43:23;16.60;99.90
19330;DHT22;9799;48.214;16.388;2022-09-03T06:46:46;16.50;99.90
19330;DHT22;9799;48.214;16.388;2022-09-03T06:50:08;16.80;99.90
19330;DHT22;9799;48.214;16.388;2022-09-03T06:53:33;16.80;99.90
19330;DHT22;9799;48.214;16.388;2022-09-03T06:56:54;16.80;99.90
19330;DHT22;9799;48.214;16.388;2022-09-03T07:00:17;17.10;99.90
19330;DHT22;9799;48.214;16.388;2022-09-03T07:03:41;17.20;99.90
19330;DHT22;9799;48.214;16.388;2022-09-03T07:07:03;17.10;99.90
19330;DHT22;9799;48.214;16.388;2022-09-03T07:10:25;17.20;99.90
19330;DHT22;9799;48.214;16.388;2022-09-03T07:13:48;17.60;99.90
19330;DHT22;9799;48.214;16.388;2022-09-03T07:17:10;17.80;99.90
19330;DHT22;9799;48.214;16.388;2022-09-03T07:20:31;17.80;99.90
19330;DHT22;9799;48.214;16.388;2022-09-03T07:23:53;18.00;99.90
19330;DHT22;9799;48.214;16.388;2022-09-03T07:27:16;17.90;99.90
19330;DHT22;9799;48.214;16.388;2022-09-03T07:30:37;18.10;99.90
19330;DHT22;9799;48.214;16.388;2022-09-03T07:34:00;18.30;99.90
19330;DHT22;9799;48.214;16.388;2022-09-03T07:37:22;18.50;99.90
19330;DHT22;9799;48.214;16.388;2022-09-03T07:40:44;18.70;99.90
19330;DHT22;9799;48.214;16.388;2022-09-03T07:44:07;18.70;99.90
19330;DHT22;9799;48.214;16.388;2022-09-03T07:47:28;18.50;99.90
19330;DHT22;9799;48.214;16.388;2022-09-03T07:50:50;18.70;99.90
19330;DHT22;9799;48.214;16.388;2022-09-03T07:54:12;19.00;99.90
19330;DHT22;9799;48.214;16.388;2022-09-03T07:57:33;19.20;99.90
19330;DHT22;9799;48.214;16.388;2022-09-03T08:00:56;19.50;99.90
19330;DHT22;9799;48.214;16.388;2022-09-03T08:04:17;19.50;99.90
19330;DHT22;9799;48.214;16.388;2022-09-03T08:07:38;19.60;99.90
19330;DHT22;9799;48.214;16.388;2022-09-03T08:11:04;19.70;99.90
19330;DHT22;9799;48.214;16.388;2022-09-03T08:14:26;19.90;99.90
19330;DHT22;9799;48.214;16.388;2022-09-03T08:17:51;19.90;99.90
19330;DHT22;9799;48.214;16.388;2022-09-03T08:21:14;19.80;99.90
19330;DHT22;9799;48.214;16.388;2022-09-03T08:24:35;20.00;99.90
19330;DHT22;9799;48.214;16.388;2022-09-03T08:27:57;20.20;99.90
19330;DHT22;9799;48.214;16.388;2022-09-03T08:31:20;20.30;99.90
19330;DHT22;9799;48.214;16.388;2022-09-03T08:34:43;20.60;99.90
19330;DHT22;9799;48.214;16.388;2022-09-03T08:38:04;20.60;99.90
19330;DHT22;9799;48.214;16.388;2022-09-03T08:41:34;20.80;99.90
19330;DHT22;9799;48.214;16.388;2022-09-03T08:45:00;21.00;99.90
19330;DHT22;9799;48.214;16.388;2022-09-03T08:48:23;21.00;99.90
19330;DHT22;9799;48.214;16.388;2022-09-03T08:51:47;21.10;99.90
19330;DHT22;9799;48.214;16.388;2022-09-03T08:55:17;21.10;99.90
19330;DHT22;9799;48.214;16.388;2022-09-03T08:58:40;21.20;99.90
19330;DHT22;9799;48.214;16.388;2022-09-03T09:02:12;21.30;99.90
19330;DHT22;9799;48.214;16.388;2022-09-03T09:05:44;21.50;99.90
19330;DHT22;9799;48.214;16.388;2022-09-03T09:09:19;21.70;99.90
19330;DHT22;9799;48.214;16.388;2022-09-03T09:12:48;21.80;99.90
19330;DHT22;9799;48.214;16.388;2022-09-03T09:16:18;21.90;99.90
19330;DHT22;9799;48.214;16.388;2022-09-03T09:19:45;22.10;99.90
19330;DHT22;9799;48.214;16.388;2022-09-03T09:23:12;22.30;99.90
19330;DHT22;9799;48.214;16.388;2022-09-03T09:26:36;22.40;99.90
19330;DHT22;9799;48.214;16.388;2022-09-03T09:30:01;22.40;99.90
19330;DHT22;9799;48.214;16.388;2022-09-03T09:33:24;22.20;99.90
19330;DHT22;9799;48.214;16.388;2022-09-03T09:36:48;22.40;99.90
19330;DHT22;9799;48.214;16.388;2022-09-03T09:40:10;22.10;99.90
19330;DHT22;9799;48.214;16.388;2022-09-03T09:43:33;22.20;99.90
19330;DHT22;9799;48.214;16.388;2022-09-03T09:47:05;22.40;99.90
19330;DHT22;9799;48.214;16.388;2022-09-03T09:50:28;22.70;99.90
19330;DHT22;9799;48.214;16.388;2022-09-03T09:54:00;23.00;99.90
19330;DHT22;9799;48.214;16.388;2022-09-03T09:57:23;23.00;99.90
19330;DHT22;9799;48.214;16.388;2022-09-03T10:00:55;23.10;99.90
19330;DHT22;9799;48.214;16.388;2022-09-03T10:04:22;23.20;99.90
19330;DHT22;9799;48.214;16.388;2022-09-03T10:07:54;23.30;99.90
19330;DHT22;9799;48.214;16.388;2022-09-03T10:11:16;23.20;99.90
19330;DHT22;9799;48.214;16.388;2022-09-03T10:14:41;23.20;99.90
19330;DHT22;9799;48.214;16.388;2022-09-03T10:18:13;23.20;99.90
19330;DHT22;9799;48.214;16.388;2022-09-03T10:21:42;23.40;99.90
19330;DHT22;9799;48.214;16.388;2022-09-03T10:25:07;23.40;99.90
19330;DHT22;9799;48.214;16.388;2022-09-03T10:28:29;23.60;99.90
19330;DHT22;9799;48.214;16.388;2022-09-03T10:31:59;23.80;99.90
19330;DHT22;9799;48.214;16.388;2022-09-03T10:35:28;23.90;99.90
19330;DHT22;9799;48.214;16.388;2022-09-03T10:38:53;23.90;99.90
19330;DHT22;9799;48.214;16.388;2022-09-03T10:42:41;23.90;99.90
19330;DHT22;9799;48.214;16.388;2022-09-03T10:46:09;23.90;99.90
19330;DHT22;9799;48.214;16.388;2022-09-03T10:49:39;24.10;99.90
19330;DHT22;9799;48.214;16.388;2022-09-03T10:53:17;23.90;99.90
19330;DHT22;9799;48.214;16.388;2022-09-03T10:56:53;23.90;99.90
19330;DHT22;9799;48.214;16.388;2022-09-03T11:00:18;24.40;99.90
19330;DHT22;9799;48.214;16.388;2022-09-03T11:03:47;24.40;99.90
19330;DHT22;9799;48.214;16.388;2022-09-03T11:07:12;23.70;99.90
19330;DHT22;9799;48.214;16.388;2022-09-03T11:10:39;23.80;99.90
19330;DHT22;9799;48.214;16.388;2022-09-03T11:14:06;24.10;99.90
19330;DHT22;9799;48.214;16.388;2022-09-03T11:17:32;24.20;99.90
19330;DHT22;9799;48.214;16.388;2022-09-03T11:20:58;24.40;99.90
19330;DHT22;9799;48.214;16.388;2022-09-03T11:24:25;24.50;99.90
19330;DHT22;9799;48.214;16.388;2022-09-03T11:27:55;24.80;99.90
19330;DHT22;9799;48.214;16.388;2022-09-03T11:31:25;25.50;99.90
19330;DHT22;9799;48.214;16.388;2022-09-03T11:34:53;25.20;99.90
19330;DHT22;9799;48.214;16.388;2022-09-03T11:38:20;25.70;99.90
19330;DHT22;9799;48.214;16.388;2022-09-03T11:41:43;25.50;99.90
19330;DHT22;9799;48.214;16.388;2022-09-03T11:45:32;24.90;99.90
19330;DHT22;9799;48.214;16.388;2022-09-03T11:48:55;25.00;99.90
19330;DHT22;9799;48.214;16.388;2022-09-03T11:52:27;24.50;99.90
19330;DHT22;9799;48.214;16.388;2022-09-03T11:55:53;24.70;99.90
19330;DHT22;9799;48.214;16.388;2022-09-03T11:59:18;24.70;99.90
19330;DHT22;9799;48.214;16.388;2022-09-03T12:02:45;24.80;99.90
19330;DHT22;9799;48.214;16.388;2022-09-03T12:06:23;25.10;99.90
19330;DHT22;9799;48.214;16.388;2022-09-03T12:10:25;25.40;99.90
19330;DHT22;9799;48.214;16.388;2022-09-03T12:13:54;25.30;99.90
19330;DHT22;9799;48.214;16.388;2022-09-03T12:17:26;25.20;99.80
19330;DHT22;9799;48.214;16.388;2022-09-03T12:21:02;25.10;99.70
19330;DHT22;9799;48.214;16.388;2022-09-03T12:24:25;25.20;99.10
19330;DHT22;9799;48.214;16.388;2022-09-03T12:27:51;25.10;99.00
19330;DHT22;9799;48.214;16.388;2022-09-03T12:31:17;25.10;99.00
19330;DHT22;9799;48.214;16.388;2022-09-03T12:34:43;24.90;98.90
19330;DHT22;9799;48.214;16.388;2022-09-03T12:38:07;25.00;98.50
19330;DHT22;9799;48.214;16.388;2022-09-03T12:41:29;25.10;99.60
19330;DHT22;9799;48.214;16.388;2022-09-03T12:44:51;25.30;98.00
19330;DHT22;9799;48.214;16.388;2022-09-03T12:48:12;25.40;98.10
19330;DHT22;9799;48.214;16.388;2022-09-03T12:51:38;25.40;98.90
19330;DHT22;9799;48.214;16.388;2022-09-03T12:55:04;25.50;97.80
19330;DHT22;9799;48.214;16.388;2022-09-03T12:58:30;25.50;97.60
19330;DHT22;9799;48.214;16.388;2022-09-03T13:01:55;25.60;97.60
19330;DHT22;9799;48.214;16.388;2022-09-03T13:05:20;25.60;97.40
19330;DHT22;9799;48.214;16.388;2022-09-03T13:08:46;25.50;97.10
19330;DHT22;9799;48.214;16.388;2022-09-03T13:12:20;25.50;96.70
19330;DHT22;9799;48.214;16.388;2022-09-03T13:15:55;25.50;96.60
19330;DHT22;9799;48.214;16.388;2022-09-03T13:19:25;25.60;96.40
19330;DHT22;9799;48.214;16.388;2022-09-03T13:23:01;25.40;95.80
19330;DHT22;9799;48.214;16.388;2022-09-03T13:26:34;25.30;96.10
19330;DHT22;9799;48.214;16.388;2022-09-03T13:30:06;25.30;96.00
19330;DHT22;9799;48.214;16.388;2022-09-03T13:33:31;25.30;95.90
19330;DHT22;9799;48.214;16.388;2022-09-03T13:36:58;25.30;96.00
19330;DHT22;9799;48.214;16.388;2022-09-03T13:40:25;25.40;96.10
19330;DHT22;9799;48.214;16.388;2022-09-03T13:43:53;25.30;95.60
19330;DHT22;9799;48.214;16.388;2022-09-03T13:47:27;25.20;95.70
19330;DHT22;9799;48.214;16.388;2022-09-03T13:50:53;25.30;95.60
19330;DHT22;9799;48.214;16.388;2022-09-03T13:54:19;25.40;95.70
19330;DHT22;9799;48.214;16.388;2022-09-03T13:57:48;25.40;95.50
19330;DHT22;9799;48.214;16.388;2022-09-03T14:01:16;25.40;96.00
19330;DHT22;9799;48.214;16.388;2022-09-03T14:04:51;25.40;95.80
19330;DHT22;9799;48.214;16.388;2022-09-03T14:08:21;25.30;95.60
19330;DHT22;9799;48.214;16.388;2022-09-03T14:11:53;25.10;95.80
19330;DHT22;9799;48.214;16.388;2022-09-03T14:15:21;25.20;95.90
19330;DHT22;9799;48.214;16.388;2022-09-03T14:18:50;25.40;96.00
19330;DHT22;9799;48.214;16.388;2022-09-03T14:22:17;25.50;95.40
19330;DHT22;9799;48.214;16.388;2022-09-03T14:25:51;25.60;96.00
19330;DHT22;9799;48.214;16.388;2022-09-03T14:29:15;25.60;95.20
19330;DHT22;9799;48.214;16.388;2022-09-03T14:32:43;25.60;95.10
19330;DHT22;9799;48.214;16.388;2022-09-03T14:36:13;25.40;95.20
19330;DHT22;9799;48.214;16.388;2022-09-03T14:39:47;25.40;95.40
19330;DHT22;9799;48.214;16.388;2022-09-03T14:47:27;25.30;95.40
19330;DHT22;9799;48.214;16.388;2022-09-03T14:51:00;25.30;95.60
19330;DHT22;9799;48.214;16.388;2022-09-03T14:54:49;25.30;95.30
19330;DHT22;9799;48.214;16.388;2022-09-03T14:58:23;25.30;95.20
19330;DHT22;9799;48.214;16.388;2022-09-03T15:01:52;25.30;95.20
19330;DHT22;9799;48.214;16.388;2022-09-03T15:05:20;25.30;95.30
19330;DHT22;9799;48.214;16.388;2022-09-03T15:08:56;25.20;95.10
19330;DHT22;9799;48.214;16.388;2022-09-03T15:12:31;25.30;96.00
19330;DHT22;9799;48.214;16.388;2022-09-03T15:16:07;25.30;95.50
19330;DHT22;9799;48.214;16.388;2022-09-03T15:19:43;25.20;95.40
19330;DHT22;9799;48.214;16.388;2022-09-03T15:23:15;25.20;95.50
19330;DHT22;9799;48.214;16.388;2022-09-03T15:26:50;25.30;95.60
19330;DHT22;9799;48.214;16.388;2022-09-03T15:30:17;25.40;95.60
19330;DHT22;9799;48.214;16.388;2022-09-03T15:33:44;25.30;95.40
19330;DHT22;9799;48.214;16.388;2022-09-03T15:37:13;25.30;95.50
19330;DHT22;9799;48.214;16.388;2022-09-03T15:40:41;25.20;95.90
19330;DHT22;9799;48.214;16.388;2022-09-03T15:44:12;25.00;95.80
19330;DHT22;9799;48.214;16.388;2022-09-03T15:47:39;24.80;96.40
19330;DHT22;9799;48.214;16.388;2022-09-03T15:51:15;24.70;96.80
19330;DHT22;9799;48.214;16.388;2022-09-03T15:54:42;24.80;96.80
19330;DHT22;9799;48.214;16.388;2022-09-03T15:58:13;24.80;96.50
19330;DHT22;9799;48.214;16.388;2022-09-03T16:01:43;24.90;96.80
19330;DHT22;9799;48.214;16.388;2022-09-03T16:05:12;24.90;96.70
19330;DHT22;9799;48.214;16.388;2022-09-03T16:08:41;24.90;96.40
19330;DHT22;9799;48.214;16.388;2022-09-03T16:12:13;24.90;96.60
19330;DHT22;9799;48.214;16.388;2022-09-03T16:15:40;24.90;96.10
19330;DHT22;9799;48.214;16.388;2022-09-03T16:19:09;24.90;96.50
19330;DHT22;9799;48.214;16.388;2022-09-03T16:22:38;24.90;96.50
19330;DHT22;9799;48.214;16.388;2022-09-03T16:26:09;24.90;96.60
19330;DHT22;9799;48.214;16.388;2022-09-03T16:29:30;24.70;97.50
19330;DHT22;9799;48.214;16.388;2022-09-03T16:33:00;24.60;97.10
19330;DHT22;9799;48.214;16.388;2022-09-03T16:36:35;24.60;97.30
19330;DHT22;9799;48.214;16.388;2022-09-03T16:40:06;24.50;97.50
19330;DHT22;9799;48.214;16.388;2022-09-03T16:43:38;24.40;97.70
19330;DHT22;9799;48.214;16.388;2022-09-03T16:47:09;24.40;97.90
19330;DHT22;9799;48.214;16.388;2022-09-03T16:50:43;24.30;98.20
19330;DHT22;9799;48.214;16.388;2022-09-03T16:54:25;24.20;98.40
19330;DHT22;9799;48.214;16.388;2022-09-03T16:58:01;24.10;98.40
19330;DHT22;9799;48.214;16.388;2022-09-03T17:01:47;24.10;98.70
19330;DHT22;9799;48.214;16.388;2022-09-03T17:05:23;24.00;99.00
19330;DHT22;9799;48.214;16.388;2022-09-03T17:08:56;23.90;99.20
19330;DHT22;9799;48.214;16.388;2022-09-03T17:12:27;23.90;99.20
19330;DHT22;9799;48.214;16.388;2022-09-03T17:15:56;23.80;99.10
19330;DHT22;9799;48.214;16.388;2022-09-03T17:19:26;23.80;99.30
19330;DHT22;9799;48.214;16.388;2022-09-03T17:23:00;23.60;99.30
19330;DHT22;9799;48.214;16.388;2022-09-03T17:26:33;23.70;99.60
19330;DHT22;9799;48.214;16.388;2022-09-03T17:30:06;23.60;99.60
19330;DHT22;9799;48.214;16.388;2022-09-03T17:37:20;23.50;99.90
19330;DHT22;9799;48.214;16.388;2022-09-03T17:40:56;23.50;99.90
19330;DHT22;9799;48.214;16.388;2022-09-03T17:44:33;23.40;99.90
19330;DHT22;9799;48.214;16.388;2022-09-03T17:48:08;23.40;99.90
19330;DHT22;9799;48.214;16.388;2022-09-03T17:51:40;23.40;99.90
19330;DHT22;9799;48.214;16.388;2022-09-03T17:55:12;23.40;99.90
19330;DHT22;9799;48.214;16.388;2022-09-03T17:58:40;23.30;99.90
19330;DHT22;9799;48.214;16.388;2022-09-03T18:02:14;23.30;99.90
19330;DHT22;9799;48.214;16.388;2022-09-03T18:05:44;23.30;99.90
19330;DHT22;9799;48.214;16.388;2022-09-03T18:09:18;23.30;99.90
19330;DHT22;9799;48.214;16.388;2022-09-03T18:12:46;23.20;99.90
19330;DHT22;9799;48.214;16.388;2022-09-03T18:16:13;23.10;99.90
19330;DHT22;9799;48.214;16.388;2022-09-03T18:19:41;23.10;99.90
19330;DHT22;9799;48.214;16.388;2022-09-03T18:23:27;23.00;99.90
19330;DHT22;9799;48.214;16.388;2022-09-03T18:27:10;23.00;99.90
19330;DHT22;9799;48.214;16.388;2022-09-03T18:30:49;22.90;99.90
19330;DHT22;9799;48.214;16.388;2022-09-03T18:34:30;22.90;99.90
19330;DHT22;9799;48.214;16.388;2022-09-03T18:38:09;22.90;99.90
19330;DHT22;9799;48.214;16.388;2022-09-03T18:41:59;22.80;99.90
19330;DHT22;9799;48.214;16.388;2022-09-03T18:45:44;22.80;99.90
19330;DHT22;9799;48.214;16.388;2022-09-03T18:49:26;22.70;99.90
19330;DHT22;9799;48.214;16.388;2022-09-03T18:53:10;22.70;99.90
19330;DHT22;9799;48.214;16.388;2022-09-03T18:56:50;22.70;99.90
19330;DHT22;9799;48.214;16.388;2022-09-03T19:00:34;22.70;99.90
19330;DHT22;9799;48.214;16.388;2022-09-03T19:04:19;22.60;99.90
19330;DHT22;9799;48.214;16.388;2022-09-03T19:08:07;22.60;99.90
19330;DHT22;9799;48.214;16.388;2022-09-03T19:11:57;22.60;99.90
19330;DHT22;9799;48.214;16.388;2022-09-03T19:15:42;22.50;99.90
19330;DHT22;9799;48.214;16.388;2022-09-03T19:19:35;22.50;99.90
19330;DHT22;9799;48.214;16.388;2022-09-03T19:23:16;22.50;99.90
19330;DHT22;9799;48.214;16.388;2022-09-03T19:27:00;22.50;99.90
19330;DHT22;9799;48.214;16.388;2022-09-03T19:30:47;22.40;99.90
19330;DHT22;9799;48.214;16.388;2022-09-03T19:34:47;22.30;99.90
19330;DHT22;9799;48.214;16.388;2022-09-03T19:38:37;22.30;99.90
19330;DHT22;9799;48.214;16.388;2022-09-03T19:42:28;22.30;99.90
19330;DHT22;9799;48.214;16.388;2022-09-03T19:46:16;22.20;99.90
19330;DHT22;9799;48.214;16.388;2022-09-03T19:50:03;22.20;99.90
19330;DHT22;9799;48.214;16.388;2022-09-03T19:53:47;22.20;99.90
19330;DHT22;9799;48.214;16.388;2022-09-03T19:57:28;22.20;99.90
19330;DHT22;9799;48.214;16.388;2022-09-03T20:01:08;22.20;99.90
19330;DHT22;9799;48.214;16.388;2022-09-03T20:04:52;22.10;99.90
19330;DHT22;9799;48.214;16.388;2022-09-03T20:08:35;22.10;99.90
19330;DHT22;9799;48.214;16.388;2022-09-03T20:12:16;22.10;99.90
19330;DHT22;9799;48.214;16.388;2022-09-03T20:15:46;22.10;99.90
19330;DHT22;9799;48.214;16.388;2022-09-03T20:19:15;22.10;99.90
19330;DHT22;9799;48.214;16.388;2022-09-03T20:22:43;22.00;99.90
19330;DHT22;9799;48.214;16.388;2022-09-03T20:26:18;22.00;99.90
19330;DHT22;9799;48.214;16.388;2022-09-03T20:29:56;22.00;99.90
19330;DHT22;9799;48.214;16.388;2022-09-03T20:33:27;22.00;99.90
19330;DHT22;9799;48.214;16.388;2022-09-03T20:36:56;21.90;99.90
19330;DHT22;9799;48.214;16.388;2022-09-03T20:40:23;21.90;99.90
19330;DHT22;9799;48.214;16.388;2022-09-03T20:44:12;21.80;99.90
19330;DHT22;9799;48.214;16.388;2022-09-03T20:47:52;21.70;99.90
19330;DHT22;9799;48.214;16.388;2022-09-03T20:51:23;21.70;99.90
19330;DHT22;9799;48.214;16.388;2022-09-03T20:54:55;21.70;99.90
19330;DHT22;9799;48.214;16.388;2022-09-03T20:58:27;21.70;99.90
19330;DHT22;9799;48.214;16.388;2022-09-03T21:01:56;21.70;99.90
19330;DHT22;9799;48.214;16.388;2022-09-03T21:05:25;21.70;99.90
19330;DHT22;9799;48.214;16.388;2022-09-03T21:08:55;21.60;99.90
19330;DHT22;9799;48.214;16.388;2022-09-03T21:12:27;21.50;99.90
19330;DHT22;9799;48.214;16.388;2022-09-03T21:15:57;21.50;99.90
19330;DHT22;9799;48.214;16.388;2022-09-03T21:19:34;21.50;99.90
19330;DHT22;9799;48.214;16.388;2022-09-03T21:23:05;21.40;99.90
19330;DHT22;9799;48.214;16.388;2022-09-03T21:26:30;21.40;99.90
19330;DHT22;9799;48.214;16.388;2022-09-03T21:29:59;21.40;99.90
19330;DHT22;9799;48.214;16.388;2022-09-03T21:33:25;21.40;99.90
19330;DHT22;9799;48.214;16.388;2022-09-03T21:36:48;21.30;99.90
19330;DHT22;9799;48.214;16.388;2022-09-03T21:40:11;21.30;99.90
19330;DHT22;9799;48.214;16.388;2022-09-03T21:43:36;21.40;99.90
19330;DHT22;9799;48.214;16.388;2022-09-03T21:47:03;21.30;99.90
19330;DHT22;9799;48.214;16.388;2022-09-03T21:50:38;21.40;99.90
19330;DHT22;9799;48.214;16.388;2022-09-03T21:54:06;21.40;99.90
19330;DHT22;9799;48.214;16.388;2022-09-03T21:57:32;21.40;99.90
19330;DHT22;9799;48.214;16.388;2022-09-03T22:00:58;21.20;99.90
19330;DHT22;9799;48.214;16.388;2022-09-03T22:04:23;21.30;99.90